Time;durP1;ratioP1;P1;durP2;ratioP2;P2;SDS_P1;SDS_P2;PMS_P1;PMS_P2;Temp;Humidity;BMP_temperature;BMP_pressure;BME280_temperature;BME280_humidity;BME280_pressure;Samples;Min_cycle;Max_cycle;Signal;HPM_P1;HPM_P2
2023/06/07 00:01:25;;;;;;;9.82;8.35;;;14.10;99.90;;;;;;4959533;28;20145;-67
2023/06/07 00:03:53;;;;;;;10.15;8.43;;;14.10;99.90;;;;;;4993113;28;20066;-67
2023/06/07 00:06:21;;;;;;;9.35;8.38;;;14.10;99.90;;;;;;5010271;28;20077;-67
2023/06/07 00:08:49;;;;;;;11.07;9.52;;;14.00;99.90;;;;;;5010197;28;20050;-67
2023/06/07 00:11:20;;;;;;;10.55;9.55;;;14.00;99.90;;;;;;4976742;28;20136;-67
2023/06/07 00:13:49;;;;;;;13.15;10.43;;;14.00;99.90;;;;;;4993480;28;20065;-66
2023/06/07 00:16:18;;;;;;;11.18;9.95;;;13.90;99.90;;;;;;5011125;28;20102;-68
2023/06/07 00:18:45;;;;;;;11.68;10.07;;;13.90;99.90;;;;;;4975975;28;20069;-66
2023/06/07 00:21:13;;;;;;;12.07;10.18;;;13.90;99.90;;;;;;5010331;28;20046;-66
2023/06/07 00:23:40;;;;;;;11.70;10.50;;;13.80;99.90;;;;;;4989370;28;20069;-66
2023/06/07 00:26:08;;;;;;;12.52;10.30;;;13.70;99.90;;;;;;4992306;28;20057;-66
2023/06/07 00:28:35;;;;;;;11.63;9.95;;;13.70;99.90;;;;;;5009019;28;20068;-66
2023/06/07 00:31:03;;;;;;;12.90;10.75;;;13.70;99.90;;;;;;4994764;28;20494;-66
2023/06/07 00:33:30;;;;;;;11.63;9.80;;;13.70;99.90;;;;;;4999312;28;20053;-66
2023/06/07 00:35:58;;;;;;;11.90;9.52;;;13.60;99.90;;;;;;4985616;28;20054;-66
2023/06/07 00:38:25;;;;;;;10.77;9.65;;;13.70;99.90;;;;;;5009799;28;20468;-66
2023/06/07 00:40:53;;;;;;;11.48;10.25;;;13.60;99.90;;;;;;4992137;28;20052;-67
2023/06/07 00:43:20;;;;;;;12.77;10.88;;;13.50;99.90;;;;;;5010987;28;20069;-68
2023/06/07 00:45:48;;;;;;;11.50;9.82;;;13.50;99.90;;;;;;5008661;28;20081;-67
2023/06/07 00:48:15;;;;;;;10.73;9.63;;;13.50;99.90;;;;;;5023531;28;20050;-68
2023/06/07 00:50:44;;;;;;;11.13;10.02;;;13.50;99.90;;;;;;4997016;28;20096;-66
2023/06/07 00:53:13;;;;;;;12.85;10.27;;;13.50;99.90;;;;;;5009761;28;20054;-67
2023/06/07 00:55:41;;;;;;;10.65;9.50;;;13.40;99.90;;;;;;4992711;28;20128;-66
2023/06/07 00:58:11;;;;;;;10.77;9.68;;;13.40;99.90;;;;;;4995464;28;20552;-66
2023/06/07 01:00:38;;;;;;;11.63;9.50;;;13.40;99.90;;;;;;5001160;28;20107;-66
2023/06/07 01:03:05;;;;;;;12.13;10.27;;;13.30;99.90;;;;;;4994197;28;20118;-66
2023/06/07 01:05:33;;;;;;;11.05;9.77;;;13.30;99.90;;;;;;5002497;28;20108;-67
2023/06/07 01:08:01;;;;;;;12.32;10.27;;;13.30;99.90;;;;;;4982216;28;20030;-66
2023/06/07 01:10:29;;;;;;;12.77;10.25;;;13.20;99.90;;;;;;5028723;28;20099;-66
2023/06/07 01:12:57;;;;;;;12.65;11.35;;;13.20;99.90;;;;;;5024729;28;20088;-66
2023/06/07 01:15:26;;;;;;;14.88;11.00;;;13.20;99.90;;;;;;4993502;28;20565;-66
2023/06/07 01:17:53;;;;;;;13.20;10.38;;;13.10;99.90;;;;;;5017199;28;20130;-66
2023/06/07 01:20:25;;;;;;;12.20;10.55;;;13.10;99.90;;;;;;5010169;28;20104;-66
2023/06/07 01:23:01;;;;;;;;;;;13.10;99.90;;;;;;5012809;28;20124;-66
2023/06/07 01:25:29;;;;;;;12.05;9.85;;;13.20;99.90;;;;;;5006048;28;20397;-67
2023/06/07 01:27:59;;;;;;;11.80;10.07;;;13.10;99.90;;;;;;4964196;28;20466;-66
2023/06/07 01:30:31;;;;;;;14.13;12.00;;;13.10;99.90;;;;;;4978529;28;20136;-66
2023/06/07 01:33:02;;;;;;;14.45;11.82;;;13.10;99.90;;;;;;5002540;28;20041;-66
2023/06/07 01:35:31;;;;;;;12.82;11.52;;;13.10;99.90;;;;;;5021419;28;20046;-66
2023/06/07 01:38:00;;;;;;;12.15;10.65;;;13.00;99.90;;;;;;5010687;28;20124;-66
2023/06/07 01:40:28;;;;;;;13.60;11.63;;;13.00;99.90;;;;;;5010328;28;20077;-66
2023/06/07 01:42:56;;;;;;;14.77;12.82;;;13.10;99.90;;;;;;4993596;28;20421;-66
2023/06/07 01:45:24;;;;;;;15.57;13.45;;;13.10;99.90;;;;;;5011075;28;20077;-66
2023/06/07 01:47:51;;;;;;;15.25;12.77;;;13.00;99.90;;;;;;5000426;28;20069;-66
2023/06/07 01:50:22;;;;;;;14.40;12.88;;;13.00;99.90;;;;;;4989485;28;20489;-66
2023/06/07 01:52:49;;;;;;;14.82;13.32;;;13.00;99.90;;;;;;5001848;28;20065;-67
2023/06/07 01:55:18;;;;;;;14.48;12.93;;;12.90;99.90;;;;;;4977763;28;20042;-67
2023/06/07 01:57:55;;;;;;;15.65;13.07;;;12.90;99.90;;;;;;4993873;28;20042;-67
2023/06/07 02:00:47;;;;;;;15.23;13.63;;;12.90;99.90;;;;;;4994828;28;20034;-66
2023/06/07 02:03:28;;;;;;;13.75;12.30;;;12.90;99.90;;;;;;5020552;28;20498;-67
2023/06/07 02:06:02;;;;;;;15.35;13.65;;;12.90;99.90;;;;;;5018758;28;20057;-67
2023/06/07 02:08:33;;;;;;;15.70;14.10;;;13.00;99.90;;;;;;4997114;28;20056;-67
2023/06/07 02:11:02;;;;;;;14.73;13.20;;;13.10;99.90;;;;;;4996201;28;20425;-66
2023/06/07 02:13:36;;;;;;;14.50;12.85;;;13.20;99.90;;;;;;4985316;28;20085;-67
2023/06/07 02:16:04;;;;;;;14.38;12.15;;;13.30;99.90;;;;;;5009927;28;20092;-68
2023/06/07 02:18:40;;;;;;;13.38;12.05;;;13.40;99.90;;;;;;4993266;28;20430;-67
2023/06/07 02:21:09;;;;;;;13.43;11.93;;;13.50;99.90;;;;;;5007133;28;20122;-66
2023/06/07 02:23:37;;;;;;;12.25;11.05;;;13.60;99.90;;;;;;4977547;28;20065;-66
2023/06/07 02:26:05;;;;;;;12.73;11.43;;;13.60;99.90;;;;;;4976264;28;20060;-66
2023/06/07 02:28:33;;;;;;;14.07;12.57;;;13.70;99.90;;;;;;5010295;28;20449;-66
2023/06/07 02:31:00;;;;;;;12.90;11.60;;;13.70;99.90;;;;;;5017604;28;20576;-66
2023/06/07 02:33:28;;;;;;;14.07;12.07;;;13.70;99.90;;;;;;5010974;28;20042;-66
2023/06/07 02:35:55;;;;;;;12.35;11.07;;;13.80;99.90;;;;;;4985466;28;20588;-66
2023/06/07 02:38:23;;;;;;;18.23;12.10;;;13.80;99.90;;;;;;5011421;28;20517;-66
2023/06/07 02:40:53;;;;;;;14.18;12.00;;;13.90;99.90;;;;;;4998963;28;20386;-66
2023/06/07 02:43:20;;;;;;;13.43;11.52;;;13.90;99.90;;;;;;5002259;28;20038;-66
2023/06/07 02:45:47;;;;;;;13.40;11.80;;;14.00;99.90;;;;;;5001989;28;20042;-67
2023/06/07 02:48:16;;;;;;;13.45;12.05;;;14.00;99.90;;;;;;5018986;28;20060;-67
2023/06/07 02:50:44;;;;;;;13.52;12.05;;;14.00;99.90;;;;;;4995152;28;20466;-66
2023/06/07 02:53:11;;;;;;;13.65;12.25;;;14.00;99.90;;;;;;5002231;28;20072;-67
2023/06/07 02:55:39;;;;;;;12.80;11.50;;;14.00;99.90;;;;;;5009821;28;20131;-67
2023/06/07 02:58:07;;;;;;;13.35;11.73;;;14.00;99.90;;;;;;4972434;28;20141;-66
2023/06/07 03:00:37;;;;;;;13.77;11.32;;;14.00;99.90;;;;;;4994117;28;20064;-67
2023/06/07 03:03:10;;;;;;;11.63;10.43;;;14.00;99.90;;;;;;4980804;28;20495;-67
2023/06/07 03:05:46;;;;;;;12.15;10.88;;;14.10;99.90;;;;;;4990048;28;20117;-67
2023/06/07 03:08:15;;;;;;;12.85;11.43;;;14.10;99.90;;;;;;4984194;28;20053;-66
2023/06/07 03:10:44;;;;;;;12.38;11.10;;;14.10;99.90;;;;;;4977061;28;20089;-66
2023/06/07 03:13:17;;;;;;;12.73;11.45;;;14.10;99.90;;;;;;4988960;28;20046;-66
2023/06/07 03:15:45;;;;;;;13.05;11.35;;;14.10;99.90;;;;;;4976355;28;20061;-66
2023/06/07 03:18:18;;;;;;;11.90;10.43;;;14.20;99.90;;;;;;4997790;28;20041;-66
2023/06/07 03:20:53;;;;;;;11.35;10.20;;;14.30;99.90;;;;;;4990847;28;20216;-67
2023/06/07 03:23:21;;;;;;;12.07;10.88;;;14.30;99.90;;;;;;4991397;28;20414;-67
2023/06/07 03:25:49;;;;;;;11.75;10.55;;;14.40;99.90;;;;;;5001688;28;20069;-67
2023/06/07 03:28:23;;;;;;;12.82;11.52;;;14.40;99.90;;;;;;5008501;28;20497;-67
2023/06/07 03:30:51;;;;;;;12.15;10.85;;;14.50;99.90;;;;;;5022315;28;20045;-67
2023/06/07 03:33:25;;;;;;;12.52;11.20;;;14.50;99.90;;;;;;4977666;28;20501;-67
2023/06/07 03:35:56;;;;;;;11.88;10.68;;;14.50;99.90;;;;;;4996067;28;20042;-67
2023/06/07 03:38:30;;;;;;;11.48;10.38;;;14.50;99.90;;;;;;4983129;28;20118;-67
2023/06/07 03:40:59;;;;;;;12.63;11.32;;;14.50;99.90;;;;;;4992860;28;20194;-67
2023/06/07 03:43:31;;;;;;;12.52;11.18;;;14.60;99.90;;;;;;4999821;28;20049;-67
2023/06/07 03:45:58;;;;;;;12.05;9.75;;;14.60;99.90;;;;;;4994598;28;20136;-66
2023/06/07 03:48:26;;;;;;;11.70;10.50;;;14.70;99.90;;;;;;4977086;28;20549;-67
2023/06/07 03:50:57;;;;;;;10.90;9.80;;;14.70;99.90;;;;;;5004907;28;20068;-67
2023/06/07 03:53:25;;;;;;;11.00;9.90;;;14.80;99.90;;;;;;4976032;28;20090;-67
2023/06/07 03:55:54;;;;;;;11.52;10.32;;;14.90;99.90;;;;;;5009174;28;20056;-67
2023/06/07 03:58:24;;;;;;;11.27;10.18;;;14.90;99.90;;;;;;4978836;28;20049;-67
2023/06/07 04:00:53;;;;;;;11.40;9.80;;;15.00;99.90;;;;;;4981760;28;20073;-67
2023/06/07 04:03:28;;;;;;;12.07;9.82;;;15.10;99.90;;;;;;4979468;28;20054;-67
2023/06/07 04:05:58;;;;;;;11.85;10.65;;;15.10;99.90;;;;;;4992612;28;20065;-67
2023/06/07 04:08:26;;;;;;;11.13;10.00;;;15.10;99.90;;;;;;5006626;28;20041;-67
2023/06/07 04:10:55;;;;;;;10.80;9.68;;;15.20;99.90;;;;;;4998672;28;20046;-67
2023/06/07 04:13:23;;;;;;;10.70;9.60;;;15.30;99.90;;;;;;4998260;28;20037;-66
2023/06/07 04:15:51;;;;;;;11.43;9.70;;;15.40;99.90;;;;;;5009985;28;20045;-67
2023/06/07 04:18:19;;;;;;;12.30;9.23;;;15.50;99.90;;;;;;4997204;28;20571;-67
2023/06/07 04:20:47;;;;;;;10.40;8.30;;;15.60;99.90;;;;;;5005665;28;20038;-67
2023/06/07 04:23:16;;;;;;;7.65;6.85;;;15.80;99.90;;;;;;4998698;28;20076;-67
2023/06/07 04:25:46;;;;;;;9.13;7.82;;;15.90;99.90;;;;;;5007326;28;20065;-67
2023/06/07 04:28:14;;;;;;;8.98;8.07;;;16.10;99.90;;;;;;5006821;28;20042;-67
2023/06/07 04:30:43;;;;;;;9.75;8.75;;;16.20;99.90;;;;;;5016123;28;20026;-68
2023/06/07 04:33:13;;;;;;;9.98;8.05;;;16.30;99.90;;;;;;5008894;28;20042;-68
2023/06/07 04:35:48;;;;;;;9.75;8.10;;;16.40;99.90;;;;;;4995535;28;20117;-67
2023/06/07 04:38:21;;;;;;;9.52;8.25;;;16.40;99.90;;;;;;4978405;28;20124;-68
2023/06/07 04:40:53;;;;;;;12.05;8.43;;;16.50;99.90;;;;;;5002967;28;20417;-67
2023/06/07 04:43:35;;;;;;;9.65;8.65;;;16.60;99.90;;;;;;4984356;28;20469;-67
2023/06/07 04:46:04;;;;;;;11.90;8.50;;;16.60;99.90;;;;;;5011722;28;20036;-67
2023/06/07 04:48:40;;;;;;;9.25;8.35;;;16.50;99.90;;;;;;4994761;28;20034;-67
2023/06/07 04:51:13;;;;;;;9.55;8.55;;;16.40;99.90;;;;;;4980290;28;20046;-67
2023/06/07 04:53:44;;;;;;;11.63;8.55;;;16.50;99.90;;;;;;4994830;28;20050;-68
2023/06/07 04:56:18;;;;;;;11.32;8.98;;;16.50;99.90;;;;;;4978901;28;20072;-67
2023/06/07 04:58:46;;;;;;;9.60;8.60;;;16.50;99.90;;;;;;4985799;28;20034;-67
2023/06/07 05:01:17;;;;;;;10.85;8.07;;;16.50;99.90;;;;;;4992946;28;20137;-67
2023/06/07 05:03:45;;;;;;;9.07;8.18;;;16.50;99.90;;;;;;4965258;28;20106;-68
2023/06/07 05:06:19;;;;;;;9.90;8.87;;;16.50;99.90;;;;;;4980144;28;20042;-68
2023/06/07 05:08:50;;;;;;;10.93;9.30;;;16.40;99.90;;;;;;4980033;28;20783;-67
2023/06/07 05:11:18;;;;;;;10.40;9.38;;;16.40;99.90;;;;;;4994222;28;20037;-68
2023/06/07 05:13:46;;;;;;;12.27;9.20;;;16.40;99.90;;;;;;4997754;28;20034;-67
2023/06/07 05:16:16;;;;;;;10.90;9.80;;;16.40;99.90;;;;;;4983667;28;20047;-67
2023/06/07 05:18:49;;;;;;;14.27;10.77;;;16.40;99.90;;;;;;4998838;28;20069;-66
2023/06/07 05:21:20;;;;;;;12.90;11.40;;;16.40;99.90;;;;;;4980137;28;20405;-68
2023/06/07 05:23:47;;;;;;;11.25;10.13;;;16.30;99.90;;;;;;4978707;28;20046;-68
2023/06/07 05:26:16;;;;;;;11.57;10.18;;;16.40;99.90;;;;;;4979676;28;20252;-67
2023/06/07 05:28:43;;;;;;;10.65;9.43;;;16.40;99.90;;;;;;5011540;28;20462;-66
2023/06/07 05:31:12;;;;;;;15.38;10.23;;;16.50;99.90;;;;;;4999779;28;20505;-69
2023/06/07 05:33:40;;;;;;;13.38;11.98;;;16.60;99.90;;;;;;5011058;28;20088;-69
2023/06/07 05:36:10;;;;;;;12.15;10.93;;;16.80;99.90;;;;;;4996257;28;20529;-67
2023/06/07 05:38:39;;;;;;;11.98;10.27;;;16.90;99.90;;;;;;4988994;28;20041;-68
2023/06/07 05:41:07;;;;;;;13.55;10.73;;;17.10;99.90;;;;;;4980419;28;20042;-67
2023/06/07 05:43:36;;;;;;;13.55;11.05;;;17.30;99.90;;;;;;4993237;28;20041;-68
2023/06/07 05:46:03;;;;;;;11.93;10.73;;;17.50;99.90;;;;;;5003970;28;20152;-68
2023/06/07 05:48:31;;;;;;;13.88;11.65;;;17.60;99.90;;;;;;4993755;28;20540;-69
2023/06/07 05:50:58;;;;;;;11.90;9.57;;;17.60;99.90;;;;;;4993406;28;20112;-68
2023/06/07 05:53:26;;;;;;;12.95;11.63;;;17.80;99.90;;;;;;4994626;28;20058;-68
2023/06/07 05:55:54;;;;;;;13.52;10.25;;;17.80;99.90;;;;;;4978573;28;20529;-68
2023/06/07 05:58:21;;;;;;;15.27;11.60;;;17.90;99.90;;;;;;5005606;28;20074;-67
2023/06/07 06:00:49;;;;;;;15.73;12.27;;;17.70;99.90;;;;;;5012712;28;20497;-68
2023/06/07 06:03:19;;;;;;;22.23;17.08;;;17.30;99.90;;;;;;5012350;28;20133;-68
2023/06/07 06:05:47;;;;;;;29.73;20.67;;;17.30;99.90;;;;;;4994514;28;20111;-68
2023/06/07 06:08:15;;;;;;;16.80;13.57;;;17.50;99.90;;;;;;5012856;28;20137;-68
2023/06/07 06:10:46;;;;;;;14.75;12.20;;;17.60;99.90;;;;;;4996193;28;20042;-68
2023/06/07 06:13:13;;;;;;;16.65;13.50;;;17.70;99.90;;;;;;5011577;28;20052;-69
2023/06/07 06:15:41;;;;;;;17.33;13.35;;;17.70;99.90;;;;;;5011957;28;20516;-68
2023/06/07 06:18:08;;;;;;;15.05;12.65;;;17.50;99.90;;;;;;5012675;28;20038;-68
2023/06/07 06:20:38;;;;;;;15.95;12.93;;;17.40;99.90;;;;;;4989600;28;20049;-67
2023/06/07 06:23:07;;;;;;;16.42;13.25;;;17.50;99.90;;;;;;4994568;28;20112;-67
2023/06/07 06:25:36;;;;;;;15.90;13.75;;;17.70;99.90;;;;;;4993727;28;20430;-67
2023/06/07 06:28:04;;;;;;;16.42;13.32;;;17.60;99.90;;;;;;5011849;28;20109;-67
2023/06/07 06:30:31;;;;;;;18.05;13.35;;;17.70;99.90;;;;;;4994893;28;20690;-67
2023/06/07 06:32:59;;;;;;;16.48;14.63;;;17.60;99.90;;;;;;4978405;28;20041;-67
2023/06/07 06:35:28;;;;;;;13.82;12.35;;;17.70;99.90;;;;;;5012287;28;20045;-67
2023/06/07 06:37:55;;;;;;;18.70;14.13;;;17.80;99.90;;;;;;4979867;28;20121;-67
2023/06/07 06:40:22;;;;;;;17.13;14.60;;;17.90;99.90;;;;;;4978064;28;20050;-67
2023/06/07 06:42:50;;;;;;;17.25;13.35;;;17.90;99.90;;;;;;5011938;28;20390;-67
2023/06/07 06:45:33;;;;;;;32.72;24.40;;;18.00;99.90;;;;;;4995100;28;20030;-67
2023/06/07 06:48:00;;;;;;;18.52;14.88;;;18.10;99.90;;;;;;4972274;28;20050;-67
2023/06/07 06:50:29;;;;;;;16.55;13.98;;;18.20;99.90;;;;;;4992198;28;20529;-67
2023/06/07 06:53:00;;;;;;;17.45;15.40;;;18.30;99.90;;;;;;5008495;28;20049;-67
2023/06/07 06:55:28;;;;;;;20.85;14.15;;;18.30;99.90;;;;;;5005160;28;20053;-67
2023/06/07 06:57:56;;;;;;;18.08;13.55;;;18.30;99.90;;;;;;4990460;28;20049;-68
2023/06/07 07:00:24;;;;;;;16.00;13.95;;;18.40;99.90;;;;;;5010134;28;20177;-67
2023/06/07 07:02:53;;;;;;;17.58;14.80;;;18.50;99.90;;;;;;4991031;28;20103;-67
2023/06/07 07:05:21;;;;;;;16.55;14.73;;;18.70;99.90;;;;;;4995552;28;20053;-68
2023/06/07 07:07:49;;;;;;;18.63;15.10;;;18.80;99.90;;;;;;4992269;28;20050;-68
2023/06/07 07:10:18;;;;;;;20.40;14.95;;;18.90;99.90;;;;;;5010003;28;20116;-68
2023/06/07 07:12:45;;;;;;;18.42;14.23;;;19.00;99.90;;;;;;4997545;28;20389;-67
2023/06/07 07:15:13;;;;;;;16.48;14.68;;;19.10;99.90;;;;;;4980690;28;20045;-67
2023/06/07 07:17:47;;;;;;;15.38;12.70;;;19.40;99.90;;;;;;5010205;28;20457;-67
2023/06/07 07:20:16;;;;;;;15.65;11.65;;;19.70;99.90;;;;;;5010397;28;20038;-67
2023/06/07 07:22:45;;;;;;;15.32;13.02;;;20.00;99.90;;;;;;5001834;28;20142;-67
2023/06/07 07:25:14;;;;;;;15.00;12.38;;;20.20;99.90;;;;;;4993769;28;20052;-67
2023/06/07 07:27:43;;;;;;;14.88;12.93;;;20.20;99.90;;;;;;4997345;28;20519;-67
2023/06/07 07:30:11;;;;;;;12.90;11.55;;;20.30;99.90;;;;;;4964475;28;20058;-66
2023/06/07 07:32:38;;;;;;;13.52;12.07;;;20.80;99.90;;;;;;4992845;28;20096;-67
2023/06/07 07:35:06;;;;;;;12.85;11.32;;;20.90;99.90;;;;;;5011298;28;20573;-67
2023/06/07 07:37:35;;;;;;;18.92;13.82;;;21.10;99.90;;;;;;5001283;28;20049;-66
2023/06/07 07:40:05;;;;;;;15.95;13.45;;;20.70;99.90;;;;;;5011244;28;20517;-67
2023/06/07 07:42:33;;;;;;;12.10;10.93;;;21.20;99.90;;;;;;5008431;28;20505;-66
2023/06/07 07:45:01;;;;;;;11.77;10.52;;;21.40;99.90;;;;;;4976606;28;20113;-67
2023/06/07 07:47:29;;;;;;;13.30;10.25;;;21.90;99.90;;;;;;4992474;28;20455;-67
2023/06/07 07:49:57;;;;;;;12.27;10.02;;;22.20;99.90;;;;;;5010504;28;20092;-67
2023/06/07 07:52:24;;;;;;;12.02;9.77;;;22.40;99.90;;;;;;5009117;28;20523;-67
2023/06/07 07:54:52;;;;;;;11.32;10.20;;;22.60;99.90;;;;;;4992737;28;20056;-67
2023/06/07 07:57:20;;;;;;;11.30;10.20;;;22.70;99.90;;;;;;5002423;28;20548;-67
2023/06/07 07:59:47;;;;;;;11.45;10.25;;;22.90;99.90;;;;;;4992410;28;20120;-67
2023/06/07 08:02:14;;;;;;;11.77;10.52;;;22.80;99.90;;;;;;5009493;28;20049;-67
2023/06/07 08:04:42;;;;;;;13.43;10.40;;;23.10;99.90;;;;;;4985320;28;20050;-67
2023/06/07 08:07:15;;;;;;;10.65;9.55;;;23.10;99.90;;;;;;5003805;28;20062;-67
2023/06/07 08:09:43;;;;;;;11.20;10.10;;;22.90;99.90;;;;;;5004258;28;20077;-67
2023/06/07 08:12:10;;;;;;;11.95;10.68;;;23.00;99.90;;;;;;5008950;28;20519;-67
2023/06/07 08:14:38;;;;;;;10.93;9.93;;;22.70;99.90;;;;;;5008353;28;20044;-66
2023/06/07 08:17:06;;;;;;;13.00;11.20;;;22.70;99.90;;;;;;5008701;28;20050;-66
2023/06/07 08:19:34;;;;;;;11.32;10.15;;;22.90;99.90;;;;;;4991892;28;20042;-66
2023/06/07 08:22:02;;;;;;;10.45;9.45;;;22.90;99.90;;;;;;5006408;28;20103;-66
2023/06/07 08:24:29;;;;;;;9.82;8.80;;;23.10;99.90;;;;;;4991905;28;20128;-66
2023/06/07 08:26:57;;;;;;;10.65;9.65;;;23.40;99.90;;;;;;5010633;28;20105;-66
2023/06/07 08:29:25;;;;;;;12.00;9.88;;;23.50;99.90;;;;;;5011503;28;20056;-67
2023/06/07 08:31:54;;;;;;;11.27;10.15;;;23.50;99.90;;;;;;5000251;28;20049;-67
2023/06/07 08:34:27;;;;;;;12.73;10.75;;;23.60;99.90;;;;;;4991814;28;20038;-67
2023/06/07 08:36:58;;;;;;;12.93;10.45;;;23.30;99.90;;;;;;4994967;28;20447;-68
2023/06/07 08:39:25;;;;;;;11.57;10.38;;;23.10;99.90;;;;;;5000488;28;20045;-68
2023/06/07 08:41:53;;;;;;;11.30;10.18;;;22.90;99.90;;;;;;5002360;28;20113;-67
2023/06/07 08:44:20;;;;;;;11.82;10.57;;;22.70;99.90;;;;;;5009421;28;20147;-68
2023/06/07 08:46:49;;;;;;;11.77;10.68;;;22.80;99.90;;;;;;4993889;28;20040;-67
2023/06/07 08:49:17;;;;;;;13.43;12.20;;;22.70;99.90;;;;;;5001250;28;20200;-67
2023/06/07 08:51:46;;;;;;;17.17;15.38;;;22.90;99.90;;;;;;5000146;28;20052;-67
2023/06/07 08:54:18;;;;;;;12.13;10.85;;;23.00;99.90;;;;;;4998661;28;20044;-67
2023/06/07 08:56:47;;;;;;;11.00;9.90;;;23.30;99.90;;;;;;5007455;28;20486;-67
2023/06/07 08:59:18;;;;;;;13.85;11.70;;;23.40;99.90;;;;;;4996065;28;20038;-67
2023/06/07 09:01:45;;;;;;;10.45;9.55;;;23.50;99.90;;;;;;4982709;28;20049;-68
2023/06/07 09:04:15;;;;;;;10.65;9.52;;;23.70;99.90;;;;;;5003684;28;20100;-67
2023/06/07 09:06:43;;;;;;;11.77;10.68;;;23.50;99.90;;;;;;4976442;28;20046;-67
2023/06/07 09:09:11;;;;;;;10.90;9.90;;;23.60;99.90;;;;;;5008815;28;20104;-67
2023/06/07 09:11:38;;;;;;;11.23;10.15;;;23.50;99.90;;;;;;4983580;28;20544;-67
2023/06/07 09:14:05;;;;;;;9.90;9.02;;;23.40;99.90;;;;;;4974701;28;20069;-67
2023/06/07 09:16:50;;;;;;;10.45;9.45;;;23.60;99.90;;;;;;4972640;28;20509;-67
2023/06/07 09:19:36;;;;;;;11.02;9.95;;;23.80;99.90;;;;;;5009425;28;20042;-66
2023/06/07 09:22:08;;;;;;;10.55;9.18;;;24.00;99.90;;;;;;5009710;28;20053;-67
2023/06/07 09:24:37;;;;;;;13.18;11.40;;;24.20;99.90;;;;;;5010901;28;20144;-67
2023/06/07 09:27:05;;;;;;;11.30;10.00;;;24.40;99.90;;;;;;4976257;28;20057;-67
2023/06/07 09:29:43;;;;;;;9.85;8.95;;;24.50;99.90;;;;;;5012050;28;20041;-67
2023/06/07 09:32:18;;;;;;;11.38;10.30;;;24.40;99.90;;;;;;5002742;28;20120;-66
2023/06/07 09:34:46;;;;;;;10.80;9.70;;;24.40;99.90;;;;;;5001910;28;20077;-68
2023/06/07 09:37:20;;;;;;;10.32;9.23;;;24.40;99.90;;;;;;5000703;28;20473;-68
2023/06/07 09:39:52;;;;;;;10.98;9.88;;;24.50;99.90;;;;;;4993927;28;20041;-67
2023/06/07 09:42:20;;;;;;;11.70;10.13;;;24.70;99.90;;;;;;5002639;28;20038;-68
2023/06/07 09:44:48;;;;;;;11.52;9.77;;;24.90;99.90;;;;;;5012371;28;20095;-68
2023/06/07 09:47:21;;;;;;;10.30;9.30;;;25.10;99.90;;;;;;5003321;28;20046;-67
2023/06/07 09:49:54;;;;;;;10.63;9.52;;;25.40;99.90;;;;;;5011353;28;20044;-68
2023/06/07 09:52:23;;;;;;;10.75;9.75;;;25.60;99.90;;;;;;5003781;28;20050;-67
2023/06/07 09:54:51;;;;;;;11.60;10.48;;;25.90;99.90;;;;;;5011590;28;20418;-68
2023/06/07 09:57:24;;;;;;;11.15;10.05;;;26.10;99.90;;;;;;5004991;28;20177;-67
2023/06/07 10:00:00;;;;;;;10.00;9.10;;;26.60;99.90;;;;;;4994735;28;20039;-68
2023/06/07 10:02:29;;;;;;;9.55;8.65;;;26.70;99.90;;;;;;4995873;28;20477;-67
2023/06/07 10:04:59;;;;;;;11.73;9.55;;;27.10;99.90;;;;;;4995244;28;20528;-67
2023/06/07 10:07:45;;;;;;;10.95;9.80;;;27.10;99.90;;;;;;5001272;28;20545;-67
2023/06/07 10:10:16;;;;;;;9.90;9.02;;;27.40;99.90;;;;;;4993895;28;20112;-67
2023/06/07 10:12:46;;;;;;;;;;;27.30;99.90;;;;;;5004346;28;20096;-68
2023/06/07 10:15:15;;;;;;;8.82;8.02;;;27.00;99.90;;;;;;4992558;28;19932;-67
2023/06/07 10:18:06;;;;;;;9.48;8.45;;;27.20;99.90;;;;;;5010847;28;20069;-67
2023/06/07 10:20:57;;;;;;;10.00;7.88;;;28.00;99.90;;;;;;5019003;28;20153;-67
2023/06/07 10:23:38;;;;;;;8.75;8.05;;;28.30;99.90;;;;;;5009658;28;20041;-67
2023/06/07 10:26:18;;;;;;;8.65;7.82;;;28.90;99.50;;;;;;4993973;28;20472;-68
2023/06/07 10:28:52;;;;;;;8.70;7.80;;;29.10;98.30;;;;;;5012481;28;20411;-68
2023/06/07 10:31:31;;;;;;;8.63;7.72;;;28.90;97.50;;;;;;5009616;28;20300;-67
2023/06/07 10:34:00;;;;;;;8.95;8.07;;;28.90;96.60;;;;;;5010666;28;20038;-68
2023/06/07 10:36:27;;;;;;;8.07;7.38;;;28.90;95.20;;;;;;5011405;28;20132;-68
2023/06/07 10:38:56;;;;;;;7.65;6.93;;;29.00;94.90;;;;;;4998952;28;20136;-67
2023/06/07 10:41:26;;;;;;;7.70;7.00;;;29.20;94.00;;;;;;4977713;28;20125;-68
2023/06/07 10:43:54;;;;;;;7.40;6.80;;;29.50;93.40;;;;;;4994346;28;20394;-68
2023/06/07 10:46:23;;;;;;;8.38;7.68;;;29.70;92.30;;;;;;5010584;28;20052;-68
2023/06/07 10:48:52;;;;;;;8.13;7.53;;;30.00;91.30;;;;;;5010314;28;20034;-68
2023/06/07 10:51:44;;;;;;;8.32;7.55;;;30.00;90.70;;;;;;4993135;28;20401;-68
2023/06/07 10:54:28;;;;;;;8.75;7.95;;;30.20;90.70;;;;;;5000683;28;20495;-67
2023/06/07 10:56:56;;;;;;;8.18;7.47;;;29.90;89.80;;;;;;5009992;28;20116;-68
2023/06/07 10:59:24;;;;;;;8.50;7.72;;;29.60;90.40;;;;;;4996614;28;20046;-67
2023/06/07 11:01:54;;;;;;;7.90;7.18;;;29.90;90.40;;;;;;5010375;28;20585;-66
2023/06/07 11:04:37;;;;;;;8.43;7.47;;;30.20;90.00;;;;;;4992794;28;20041;-66
2023/06/07 11:07:24;;;;;;;8.35;7.55;;;30.50;88.60;;;;;;5008110;28;20064;-66
2023/06/07 11:10:09;;;;;;;8.38;7.68;;;30.80;86.50;;;;;;4993279;28;20077;-67
2023/06/07 11:12:40;;;;;;;8.35;7.55;;;30.70;85.90;;;;;;4993567;28;20038;-67
2023/06/07 11:15:17;;;;;;;8.50;7.70;;;30.40;85.40;;;;;;4977060;28;20057;-67
2023/06/07 11:18:01;;;;;;;8.40;7.60;;;30.70;84.70;;;;;;5006338;28;20073;-67
2023/06/07 11:23:24;;;;;;;8.32;7.30;;;30.70;81.50;;;;;;5014014;28;20645;-67
2023/06/07 11:26:05;;;;;;;7.93;7.22;;;30.70;82.80;;;;;;5004403;28;20045;-67
2023/06/07 11:28:38;;;;;;;9.02;8.23;;;31.20;82.40;;;;;;5022622;28;20118;-67
2023/06/07 11:31:13;;;;;;;8.57;7.78;;;31.70;81.40;;;;;;5012894;28;20088;-67
2023/06/07 11:33:41;;;;;;;9.30;8.50;;;31.70;80.40;;;;;;5009474;28;20037;-67
2023/06/07 11:36:09;;;;;;;9.18;8.38;;;31.20;80.10;;;;;;5012769;28;20042;-67
2023/06/07 11:38:37;;;;;;;9.40;8.60;;;31.50;79.20;;;;;;4977876;28;20076;-67
2023/06/07 11:41:06;;;;;;;8.52;7.72;;;31.80;78.70;;;;;;5000629;28;20057;-67
2023/06/07 11:43:33;;;;;;;8.38;7.68;;;32.50;76.50;;;;;;5020473;28;20171;-67
2023/06/07 11:46:01;;;;;;;9.10;8.15;;;32.60;73.20;;;;;;4988022;28;20437;-67
2023/06/07 11:48:29;;;;;;;8.88;8.07;;;31.30;75.00;;;;;;5005591;28;20050;-67
2023/06/07 11:50:59;;;;;;;8.35;7.55;;;30.60;76.00;;;;;;5013005;28;20152;-68
2023/06/07 11:53:30;;;;;;;8.70;8.00;;;29.50;77.60;;;;;;4994680;28;20041;-68
2023/06/07 11:55:58;;;;;;;;;;;29.50;78.60;;;;;;5007109;28;20419;-68
2023/06/07 11:58:25;;;;;;;9.65;8.75;;;29.30;79.40;;;;;;5006628;28;19927;-68
2023/06/07 12:00:54;;;;;;;9.00;8.10;;;29.10;80.10;;;;;;5009135;28;20096;-67
2023/06/07 12:03:23;;;;;;;8.60;7.80;;;29.10;80.10;;;;;;4991008;28;20050;-67
2023/06/07 12:05:53;;;;;;;8.30;7.60;;;29.90;80.80;;;;;;4994658;28;20045;-68
2023/06/07 12:08:22;;;;;;;9.48;8.68;;;31.00;79.20;;;;;;5010775;28;20046;-68
2023/06/07 12:10:54;;;;;;;8.82;8.02;;;31.70;77.10;;;;;;5000432;28;20052;-68
2023/06/07 12:13:22;;;;;;;8.45;7.70;;;32.40;75.20;;;;;;5010547;28;20061;-68
2023/06/07 12:15:55;;;;;;;9.82;7.70;;;33.20;72.50;;;;;;4992221;28;20110;-68
2023/06/07 12:18:28;;;;;;;8.55;7.85;;;33.60;71.60;;;;;;4991279;28;20549;-68
2023/06/07 12:21:07;;;;;;;8.57;7.78;;;34.40;69.50;;;;;;5008112;28;20040;-67
2023/06/07 12:23:35;;;;;;;8.57;7.88;;;34.50;68.90;;;;;;5003999;28;20822;-67
2023/06/07 12:26:14;;;;;;;8.98;8.07;;;34.50;68.60;;;;;;5009481;28;20127;-68
2023/06/07 12:28:43;;;;;;;8.40;7.70;;;35.00;68.10;;;;;;5008177;28;20049;-68
2023/06/07 12:31:26;;;;;;;7.97;7.32;;;34.50;66.90;;;;;;4991807;28;20089;-67
2023/06/07 12:34:02;;;;;;;8.90;8.10;;;33.10;69.60;;;;;;5003071;28;20038;-67
2023/06/07 12:36:34;;;;;;;9.13;8.30;;;32.70;69.40;;;;;;5011096;28;20038;-67
2023/06/07 12:39:05;;;;;;;9.35;8.55;;;32.20;70.00;;;;;;5007795;28;20049;-67
2023/06/07 12:41:33;;;;;;;11.65;8.23;;;31.50;70.20;;;;;;4994981;28;20524;-69
2023/06/07 12:44:06;;;;;;;7.95;7.25;;;31.10;72.50;;;;;;4984781;28;20081;-69
2023/06/07 12:46:34;;;;;;;9.45;7.43;;;32.30;68.00;;;;;;4992111;28;20077;-69
2023/06/07 12:49:02;;;;;;;8.20;7.40;;;32.90;66.40;;;;;;4995161;28;20145;-67
2023/06/07 12:51:31;;;;;;;7.88;7.18;;;33.20;65.50;;;;;;4977139;28;20112;-66
2023/06/07 12:53:59;;;;;;;8.18;7.25;;;33.30;65.20;;;;;;4992859;28;20389;-69